»·PEaware :: N191WR L88-KSBP

N191WR :: L88-KSBP

FLIGHT INFORMATION

Flight Status: Arrived
Operator: Privately registered:
United States
More flights under this callsign
Pilot: Michael M. (12217)
Aircraft: CESSNA 172 SKYHAWK
(C172)
More flights by this aircraft type
Origin: L88 New Cuyama
United States
Destination: KSBP San Luis Co Regl
United States
More flights between these airports :: More routes between these airports
Route:
File this flight plan on PilotEdge
Remarks: CAT 2
Altitude:
(Current/Filed)
0ft
Speed:
(Current/Filed)
110kts
Departed: 10-Oct-16 08:14 PM
Arrived: 10-Oct-16 08:48 PM
Distance/Time
Traveled:
50nm/0:34
Distance/Time
To Go:
Arrived

Flight Plot

Page will automatically refresh every two minutes.


Map Options




Map Legend


Flown Route
Filed Route
Departure Airport
Arrival Airport
Navaid (VOR, NDB)
Fix

Horizontal Profiles

Position Reports

Time Latitude Longitude Heading Altitude Ground
Speed
10-Oct-16 20:06 34.942819 -119.690832 209 2188ft 0kts
10-Oct-16 20:07 34.942576 -119.690694 166 2191ft 4kts
10-Oct-16 20:08 34.942211 -119.690516 135 2194ft 0kts
10-Oct-16 20:09 34.941130 -119.688527 116 2206ft 21kts
10-Oct-16 20:10 34.939949 -119.685632 296 2206ft 47kts
10-Oct-16 20:11 34.948101 -119.706043 296 2827ft 70kts
10-Oct-16 20:12 34.956521 -119.727238 294 3604ft 69kts
10-Oct-16 20:13 34.965232 -119.748266 294 4368ft 68kts
10-Oct-16 20:14 34.970273 -119.770560 279 5090ft 71kts
10-Oct-16 20:15 34.971732 -119.793104 283 5655ft 86kts
10-Oct-16 20:16 34.979382 -119.824633 293 6001ft 102kts
10-Oct-16 20:17 34.991191 -119.849848 303 6275ft 104kts
10-Oct-16 20:18 35.009617 -119.880219 316 6359ft 114kts
10-Oct-16 20:19 35.031072 -119.906351 286 6405ft 117kts
10-Oct-16 20:20 35.039350 -119.931497 298 6374ft 119kts
10-Oct-16 20:21 35.058668 -119.962995 273 6202ft 123kts
10-Oct-16 20:22 35.054845 -120.001162 274 6147ft 103kts
10-Oct-16 20:23 35.055922 -120.034038 274 6353ft 97kts
10-Oct-16 20:24 35.062594 -120.064960 288 6602ft 94kts
10-Oct-16 20:25 35.075650 -120.093084 302 6615ft 107kts
10-Oct-16 20:26 35.090000 -120.123207 287 6565ft 102kts
10-Oct-16 20:27 35.102981 -120.154033 308 6490ft 104kts
10-Oct-16 20:28 35.115566 -120.185115 291 6400ft 102kts
10-Oct-16 20:29 35.130436 -120.214946 291 6310ft 104kts
10-Oct-16 20:30 35.137024 -120.248326 277 6273ft 101kts
10-Oct-16 20:31 35.142323 -120.282067 272 6300ft 100kts
10-Oct-16 20:32 35.141098 -120.318170 267 6216ft 110kts
10-Oct-16 20:33 35.148659 -120.344868 290 6123ft 105kts
10-Oct-16 20:34 35.163361 -120.381962 295 5957ft 104kts
10-Oct-16 20:35 35.173972 -120.408233 293 5846ft 103kts
10-Oct-16 20:36 35.184573 -120.435960 290 5728ft 102kts
10-Oct-16 20:37 35.194906 -120.468008 296 5710ft 102kts
10-Oct-16 20:38 35.201594 -120.500694 268 4989ft 104kts
10-Oct-16 20:39 35.200131 -120.535077 268 3710ft 104kts
10-Oct-16 20:40 35.200627 -120.568991 284 2549ft 91kts
10-Oct-16 20:41 35.210171 -120.596755 307 1645ft 87kts
10-Oct-16 20:42 35.223147 -120.617281 308 960ft 63kts
10-Oct-16 20:43 35.233133 -120.633789 305 233ft 45kts
10-Oct-16 20:44 35.235293 -120.636356 71 214ft 1kts
10-Oct-16 20:45 35.236480 -120.636347 242 214ft 0kts
10-Oct-16 20:46 35.236480 -120.636347 242 214ft 0kts
10-Oct-16 20:47 35.236480 -120.636347 242 214ft 0kts
10-Oct-16 20:48 35.236480 -120.636347 242 214ft 0kts
10-Oct-16 20:49 35.236480 -120.636347 242 214ft 0kts
10-Oct-16 20:50 35.236480 -120.636347 242 214ft 0kts
10-Oct-16 20:51 35.236480 -120.636347 242 214ft 0kts
10-Oct-16 20:52 35.236480 -120.636347 242 214ft 0kts
10-Oct-16 20:53 35.236480 -120.636347 242 214ft 0kts
10-Oct-16 20:54 35.236480 -120.636347 242 214ft 0kts
10-Oct-16 20:55 35.236480 -120.636347 242 214ft 0kts
10-Oct-16 20:56 35.236480 -120.636347 242 214ft 0kts

Navigation Log

Ident Type
1. L88 Airport
2. KSBP Airport